Time;durP1;ratioP1;P1;durP2;ratioP2;P2;SDS_P1;SDS_P2;PMS_P1;PMS_P2;Temp;Humidity;BMP_temperature;BMP_pressure;BME280_temperature;BME280_humidity;BME280_pressure;Samples;Min_cycle;Max_cycle;Signal;HPM_P1;HPM_P2
2022/01/07 00:00:18;;;;;;;;;10.50;7.25;;;;;5.49;67.13;101302.25;5073927;28;45373;-74
2022/01/07 00:02:45;;;;;;;;;13.00;7.00;;;;;5.67;66.49;101336.31;5073713;28;45295;-74
2022/01/07 00:05:11;;;;;;;;;9.75;8.00;;;;;5.59;66.47;101318.84;5073996;28;45639;-74
2022/01/07 00:07:36;;;;;;;;;8.50;6.75;;;;;5.43;66.69;101294.41;5074662;27;45930;-74
2022/01/07 00:10:03;;;;;;;;;13.00;7.75;;;;;5.53;67.66;101329.38;5074705;28;46104;-74
2022/01/07 00:12:28;;;;;;;;;6.75;3.00;;;;;5.52;67.91;101325.00;5073563;28;45551;-74
2022/01/07 00:14:53;;;;;;;;;12.50;8.00;;;;;5.20;68.44;101266.50;5073328;27;45417;-74
2022/01/07 00:17:19;;;;;;;;;8.25;7.25;;;;;5.53;67.83;101318.88;5072105;27;45487;-74
2022/01/07 00:19:44;;;;;;;;;8.25;5.75;;;;;5.47;67.33;101320.66;5075604;27;45407;-74
2022/01/07 00:22:10;;;;;;;;;10.25;9.75;;;;;5.37;67.61;101304.94;5092137;27;45402;-74
2022/01/07 00:24:35;;;;;;;;;13.75;8.00;;;;;5.40;67.57;101299.69;5089449;28;46421;-74
2022/01/07 00:27:01;;;;;;;;;10.00;8.00;;;;;5.26;68.69;101281.34;5090185;28;44816;-74
2022/01/07 00:29:26;;;;;;;;;6.75;6.75;;;;;5.27;68.28;101266.50;5081262;28;45461;-74
2022/01/07 00:31:52;;;;;;;;;5.50;5.25;;;;;5.35;68.33;101285.69;5073551;28;45336;-74
2022/01/07 00:34:17;;;;;;;;;11.00;7.00;;;;;4.87;68.80;101209.78;5075536;28;46017;-74
2022/01/07 00:36:42;;;;;;;;;9.25;7.00;;;;;5.35;68.18;101299.69;5073330;28;45333;-74
2022/01/07 00:39:08;;;;;;;;;16.25;10.50;;;;;5.25;69.57;101282.25;5072863;28;45429;-74
2022/01/07 00:41:33;;;;;;;;;3.00;2.00;;;;;5.30;69.54;101293.59;5071769;28;46481;-74
2022/01/07 00:43:58;;;;;;;;;8.50;8.00;;;;;5.28;69.93;101284.84;5053957;28;47074;-74
2022/01/07 00:46:24;;;;;;;;;8.75;6.00;;;;;5.26;70.04;101291.84;5074420;28;45344;-74
2022/01/07 00:48:49;;;;;;;;;10.00;7.50;;;;;5.19;69.01;101264.75;5072157;28;45454;-74
2022/01/07 00:51:14;;;;;;;;;11.00;8.50;;;;;5.09;70.55;101238.56;5072780;28;45462;-74
2022/01/07 00:53:41;;;;;;;;;8.00;8.00;;;;;5.21;70.37;101264.78;5072528;28;45401;-74
2022/01/07 00:56:07;;;;;;;;;15.75;6.75;;;;;5.18;70.51;101247.28;5072927;28;45403;-74
2022/01/07 00:58:32;;;;;;;;;10.50;6.50;;;;;4.92;70.44;101204.53;5074752;28;45376;-74
2022/01/07 01:00:57;;;;;;;;;13.50;8.75;;;;;5.16;70.88;101248.16;5082955;27;45437;-74
2022/01/07 01:03:23;;;;;;;;;10.50;7.75;;;;;5.15;71.10;101230.69;5072637;28;46336;-74
2022/01/07 01:05:49;;;;;;;;;7.75;6.00;;;;;5.17;70.79;101247.28;5072328;28;45456;-74
2022/01/07 01:08:14;;;;;;;;;10.00;7.00;;;;;5.13;71.19;101248.19;5071982;28;45491;-74
2022/01/07 01:10:40;;;;;;;;;10.25;7.25;;;;;5.09;71.49;101233.31;5072865;28;45427;-74
2022/01/07 01:13:05;;;;;;;;;15.75;8.50;;;;;4.97;71.87;101231.59;5073608;27;46165;-74
2022/01/07 01:15:30;;;;;;;;;10.50;10.00;;;;;5.04;72.54;101248.22;5072712;28;45460;-74
2022/01/07 01:17:58;;;;;;;;;15.50;10.00;;;;;4.99;72.21;101243.84;5072803;28;45344;-74
2022/01/07 01:20:24;;;;;;;;;7.25;7.25;;;;;4.86;71.62;101215.91;5072943;28;45395;-74
2022/01/07 01:22:50;;;;;;;;;41.50;24.25;;;;;4.98;73.14;101244.72;5072497;28;46675;-74
2022/01/07 01:25:16;;;;;;;;;12.50;9.50;;;;;5.04;73.18;101245.59;5073185;27;45844;-74
2022/01/07 01:27:42;;;;;;;;;8.25;3.25;;;;;5.00;72.59;101240.34;5071892;27;45587;-74
2022/01/07 01:30:10;;;;;;;;;15.25;11.50;;;;;4.96;73.66;101230.72;5068989;27;46806;-74
2022/01/07 01:32:36;;;;;;;;;27.00;16.25;;;;;4.97;73.47;101243.00;5072054;27;46168;-74
2022/01/07 01:35:04;;;;;;;;;18.25;11.25;;;;;4.96;72.81;101243.84;5071095;28;45574;-74
2022/01/07 01:37:30;;;;;;;;;10.75;10.50;;;;;4.87;73.94;101209.78;5068784;28;45462;-74
2022/01/07 01:39:57;;;;;;;;;13.75;10.75;;;;;5.03;74.26;101223.75;5071343;28;45638;-74
2022/01/07 01:42:22;;;;;;;;;16.00;13.25;;;;;5.07;73.37;101229.84;5072493;28;45466;-74
2022/01/07 01:44:48;;;;;;;;;15.25;12.50;;;;;5.05;74.04;101234.22;5053614;28;45697;-74
2022/01/07 01:47:13;;;;;;;;;9.50;7.25;;;;;5.04;73.55;101228.09;5072342;28;45718;-74
2022/01/07 01:49:39;;;;;;;;;14.00;7.00;;;;;4.90;74.13;101195.78;5073111;28;45383;-74
2022/01/07 01:52:05;;;;;;;;;10.00;7.50;;;;;4.93;73.60;101207.13;5073076;28;45981;-74
2022/01/07 01:54:31;;;;;;;;;14.00;9.00;;;;;4.91;74.07;101190.56;5072393;28;45454;-74
2022/01/07 01:56:56;;;;;;;;;11.25;11.25;;;;;4.96;74.00;101185.28;5072342;28;45321;-74
2022/01/07 01:59:24;;;;;;;;;14.75;7.75;;;;;5.06;73.71;101200.13;5072434;28;45407;-74
2022/01/07 02:01:49;;;;;;;;;13.50;10.00;;;;;5.05;74.37;101184.38;5071773;28;45424;-74
2022/01/07 02:04:14;;;;;;;;;16.50;11.25;;;;;5.08;73.78;101186.97;5074299;28;45277;-74
2022/01/07 02:06:40;;;;;;;;;10.75;8.25;;;;;5.01;74.12;101170.41;5071693;28;45461;-74
2022/01/07 02:09:05;;;;;;;;;4.75;4.75;;;;;4.97;73.21;101166.91;5066813;28;45320;-74
2022/01/07 02:11:33;;;;;;;;;13.25;9.50;;;;;5.04;73.43;101173.00;5072235;28;47177;-74
2022/01/07 02:13:59;;;;;;;;;18.25;12.25;;;;;5.07;74.22;101183.47;5073811;28;45589;-74
2022/01/07 02:16:26;;;;;;;;;6.75;3.00;;;;;5.15;73.53;101181.69;5077711;28;45397;-74
2022/01/07 02:18:51;;;;;;;;;14.00;7.00;;;;;5.04;73.82;101194.00;5074284;28;45714;-74
2022/01/07 02:21:17;;;;;;;;;13.75;7.50;;;;;5.09;73.88;101196.56;5074818;28;45426;-74
2022/01/07 02:23:42;;;;;;;;;8.00;6.00;;;;;5.01;74.03;101175.66;5075324;28;45491;-74
2022/01/07 02:26:08;;;;;;;;;12.50;5.75;;;;;5.08;74.65;101171.22;5075000;28;45403;-74
2022/01/07 02:28:34;;;;;;;;;14.00;6.00;;;;;5.22;73.74;101188.66;5076859;27;45382;-74
2022/01/07 02:31:00;;;;;;;;;13.75;11.50;;;;;5.29;73.22;101204.34;5075889;27;45907;-74
2022/01/07 02:33:25;;;;;;;;;11.75;10.00;;;;;5.25;73.67;101182.50;5075402;27;45333;-74
2022/01/07 02:35:51;;;;;;;;;11.25;7.00;;;;;5.23;73.62;101163.28;5074901;27;45642;-74
2022/01/07 02:38:17;;;;;;;;;13.50;8.00;;;;;5.38;72.78;101199.06;5075180;28;45316;-74
2022/01/07 02:40:43;;;;;;;;;8.50;7.75;;;;;5.34;73.93;101192.97;5075229;27;46312;-74
2022/01/07 02:43:09;;;;;;;;;12.25;9.50;;;;;5.39;74.32;101195.56;5077215;27;45493;-74
2022/01/07 02:45:34;;;;;;;;;8.50;7.00;;;;;4.99;73.90;101110.06;5074778;28;45678;-74
2022/01/07 02:48:02;;;;;;;;;21.50;17.00;;;;;5.35;74.40;101157.94;5075112;28;45448;-74
2022/01/07 02:50:30;;;;;;;;;11.75;10.00;;;;;5.37;73.67;101161.44;5074414;28;46064;-74
2022/01/07 02:52:56;;;;;;;;;13.00;8.25;;;;;5.46;73.57;101171.03;5057989;28;45599;-74
2022/01/07 02:55:22;;;;;;;;;11.00;7.25;;;;;5.42;73.85;101178.03;5076293;27;45463;-74
2022/01/07 02:57:48;;;;;;;;;22.75;20.75;;;;;5.42;73.72;101169.31;5075613;28;45443;-74
2022/01/07 03:00:16;;;;;;;;;12.25;9.75;;;;;5.41;74.69;101180.66;5074081;28;46205;-74
2022/01/07 03:02:42;;;;;;;;;7.50;7.50;;;;;5.44;74.74;101175.41;5075322;28;45644;-74
2022/01/07 03:05:07;;;;;;;;;11.25;10.25;;;;;5.40;73.92;101166.69;5074241;28;45316;-74
2022/01/07 03:07:34;;;;;;;;;8.25;6.50;;;;;5.49;73.70;101163.13;5076064;28;45450;-74
2022/01/07 03:09:59;;;;;;;;;15.75;13.25;;;;;5.40;74.15;101145.69;5074896;28;46048;-75
2022/01/07 03:12:25;;;;;;;;;12.75;10.00;;;;;5.46;73.97;101161.38;5074541;28;45491;-74
2022/01/07 03:14:50;;;;;;;;;14.75;12.25;;;;;5.57;73.68;101160.47;5074933;28;45368;-75
2022/01/07 03:17:16;;;;;;;;;10.00;8.25;;;;;5.51;73.65;101139.50;5075013;28;45379;-74
2022/01/07 03:19:42;;;;;;;;;9.25;8.00;;;;;5.45;73.93;101125.53;5074331;28;45946;-75
2022/01/07 03:22:07;;;;;;;;;11.00;8.75;;;;;5.59;73.57;101143.81;5076220;28;45362;-74
2022/01/07 03:24:33;;;;;;;;;11.75;9.50;;;;;5.58;73.88;101131.53;5073613;27;45394;-75
2022/01/07 03:26:59;;;;;;;;;11.50;7.00;;;;;5.58;73.32;101122.81;5073783;28;45458;-74
2022/01/07 03:29:24;;;;;;;;;12.00;8.50;;;;;5.55;73.19;101120.22;5055858;28;47190;-74
2022/01/07 03:31:50;;;;;;;;;9.50;6.75;;;;;5.49;73.56;101123.75;5073957;28;45460;-74
2022/01/07 03:34:15;;;;;;;;;6.25;6.25;;;;;5.61;72.94;101128.03;5075467;27;45558;-74
2022/01/07 03:36:40;;;;;;;;;7.00;7.00;;;;;5.71;73.35;101142.84;5072373;28;45479;-74
2022/01/07 03:39:07;;;;;;;;;8.75;7.75;;;;;5.62;73.50;101119.28;5074043;27;46226;-74
2022/01/07 03:41:33;;;;;;;;;8.25;7.75;;;;;5.54;73.92;101121.09;5055783;28;45291;-74
2022/01/07 03:43:58;;;;;;;;;9.75;8.00;;;;;5.62;73.63;101142.94;5074220;28;45281;-74
2022/01/07 03:46:23;;;;;;;;;7.50;6.25;;;;;5.66;73.30;101147.25;5075536;28;45345;-74
2022/01/07 03:48:49;;;;;;;;;10.75;7.50;;;;;5.64;73.09;101146.38;5073628;28;45899;-74
2022/01/07 03:51:14;;;;;;;;;13.25;8.00;;;;;5.64;73.79;101151.63;5077853;27;45480;-74
2022/01/07 03:53:40;;;;;;;;;11.75;10.50;;;;;5.56;73.26;101135.97;5074456;28;45411;-74
2022/01/07 03:56:05;;;;;;;;;8.00;7.25;;;;;5.72;74.25;101155.09;5074078;28;45293;-74
2022/01/07 03:58:31;;;;;;;;;9.00;7.25;;;;;5.73;73.88;101153.31;5074971;27;46173;-74
2022/01/07 04:00:56;;;;;;;;;14.25;10.25;;;;;5.73;73.93;101153.31;5073819;28;45411;-74
2022/01/07 04:03:21;;;;;;;;;12.50;8.00;;;;;5.69;74.09;101131.47;5073287;28;45641;-74
2022/01/07 04:05:47;;;;;;;;;10.50;7.00;;;;;5.74;74.32;101121.81;5074476;28;45355;-74
2022/01/07 04:08:13;;;;;;;;;12.50;6.00;;;;;5.76;74.20;101119.16;5073815;28;45557;-74
2022/01/07 04:10:39;;;;;;;;;10.00;7.50;;;;;5.58;74.98;101110.53;5074308;28;45348;-74
2022/01/07 04:13:05;;;;;;;;;6.25;6.25;;;;;5.66;74.42;101139.38;5057233;28;45423;-74
2022/01/07 04:15:31;;;;;;;;;10.50;6.75;;;;;5.63;74.97;101132.41;5073737;28;45551;-74
2022/01/07 04:17:56;;;;;;;;;11.50;7.00;;;;;5.64;75.66;101134.13;5071663;28;46215;-74
2022/01/07 04:20:25;;;;;;;;;8.75;6.25;;;;;5.66;74.85;101131.50;5069641;28;45476;-74
2022/01/07 04:22:51;;;;;;;;;8.25;6.25;;;;;5.69;74.82;101128.84;5068531;28;45496;-74
2022/01/07 04:25:18;;;;;;;;;6.75;5.75;;;;;5.67;75.92;101125.34;5067601;28;45508;-74
2022/01/07 04:27:51;;;;;;;;;8.25;7.00;;;;;5.68;75.65;101124.50;5083422;27;46272;-74
2022/01/07 04:30:17;;;;;;;;;8.00;6.00;;;;;5.65;74.81;101132.41;5068704;27;45490;-74
2022/01/07 04:32:42;;;;;;;;;7.00;7.00;;;;;5.59;75.64;101108.78;5068814;28;45726;-74
2022/01/07 04:35:10;;;;;;;;;17.25;7.00;;;;;5.72;75.09;101128.81;5069751;27;45846;-74
2022/01/07 04:37:36;;;;;;;;;8.25;6.00;;;;;5.60;75.38;101102.66;5068797;28;46281;-74
2022/01/07 04:40:03;;;;;;;;;11.50;6.00;;;;;5.70;75.00;101109.56;5067021;28;45498;-74
2022/01/07 04:42:29;;;;;;;;;6.75;5.75;;;;;5.62;74.76;101104.41;5066739;28;45497;-74
2022/01/07 04:44:54;;;;;;;;;8.25;6.75;;;;;5.72;75.17;101104.31;5066680;28;45552;-73
2022/01/07 04:47:19;;;;;;;;;13.75;9.25;;;;;5.68;74.47;101095.59;5067515;28;45471;-74
2022/01/07 04:49:45;;;;;;;;;6.25;6.00;;;;;5.73;75.37;101103.44;5066862;28;45444;-74
2022/01/07 04:52:10;;;;;;;;;11.75;6.00;;;;;5.65;75.56;101082.50;5067123;28;45525;-74
2022/01/07 04:54:35;;;;;;;;;7.00;6.00;;;;;5.69;75.13;101095.56;5066841;28;45481;-74
2022/01/07 04:57:01;;;;;;;;;6.00;6.00;;;;;5.73;75.52;101085.91;5049167;28;45763;-75
2022/01/07 04:59:26;;;;;;;;;9.25;8.25;;;;;5.75;75.12;101089.41;5066014;28;45554;-74
2022/01/07 05:01:52;;;;;;;;;10.00;4.50;;;;;5.77;76.26;101094.66;5066833;28;45517;-74
2022/01/07 05:04:17;;;;;;;;;6.00;5.50;;;;;5.66;75.34;101078.97;5069899;28;45558;-74
2022/01/07 05:06:47;;;;;;;;;7.00;5.75;;;;;5.71;75.10;101087.69;5068147;28;45550;-74
2022/01/07 05:09:17;;;;;;;;;5.25;5.25;;;;;5.72;75.06;101083.31;5068622;28;45585;-74
2022/01/07 05:11:44;;;;;;;;;3.75;3.75;;;;;5.68;75.82;101085.97;5066800;28;47716;-74
2022/01/07 05:14:09;;;;;;;;;9.00;6.25;;;;;5.72;75.94;101086.81;5065823;28;45544;-74
2022/01/07 05:16:35;;;;;;;;;3.75;2.50;;;;;5.56;75.96;101072.06;5066520;28;45991;-74
2022/01/07 05:19:01;;;;;;;;;7.75;6.00;;;;;5.74;75.59;101100.81;5068683;28;45567;-74
2022/01/07 05:21:27;;;;;;;;;7.25;6.00;;;;;5.59;75.16;101078.19;5068290;27;45526;-74
2022/01/07 05:23:52;;;;;;;;;11.00;7.00;;;;;5.69;75.75;101090.31;5068463;27;45489;-74
2022/01/07 05:26:18;;;;;;;;;7.50;7.50;;;;;5.55;75.89;101073.81;5068075;28;46152;-74
2022/01/07 05:28:43;;;;;;;;;6.75;6.50;;;;;5.62;75.29;101103.53;5067416;28;45515;-74
2022/01/07 05:31:08;;;;;;;;;10.50;7.00;;;;;5.69;76.08;101106.09;5069182;28;45745;-74
2022/01/07 05:33:34;;;;;;;;;7.50;6.00;;;;;5.68;75.72;101122.72;5068294;28;46090;-74
2022/01/07 05:35:59;;;;;;;;;4.50;4.50;;;;;5.68;75.35;101125.34;5068732;28;45512;-74
2022/01/07 05:38:24;;;;;;;;;7.75;5.00;;;;;5.56;75.26;101109.72;5049714;28;45448;-74
2022/01/07 05:40:50;;;;;;;;;7.00;6.00;;;;;5.59;75.67;101090.41;5068645;28;46609;-74
2022/01/07 05:43:15;;;;;;;;;13.50;7.25;;;;;5.71;75.55;101113.97;5068698;28;45502;-74
2022/01/07 05:45:44;;;;;;;;;5.00;4.25;;;;;5.61;75.50;101102.63;5067973;28;46301;-75
2022/01/07 05:48:09;;;;;;;;;2.00;2.00;;;;;5.65;76.16;101101.75;5069678;28;46020;-74
2022/01/07 05:50:35;;;;;;;;;11.00;6.50;;;;;5.69;75.86;101110.47;5070943;28;46166;-74
2022/01/07 05:53:00;;;;;;;;;9.25;7.50;;;;;5.59;75.43;101104.44;5071430;28;45461;-74
2022/01/07 05:55:25;;;;;;;;;7.00;4.25;;;;;5.30;74.75;101054.78;5072250;28;45475;-74
2022/01/07 05:57:51;;;;;;;;;13.00;7.00;;;;;5.67;76.43;101125.34;5070949;28;46247;-74
2022/01/07 06:00:18;;;;;;;;;12.25;6.75;;;;;5.49;76.42;101096.63;5071440;28;45457;-74
2022/01/07 06:02:43;;;;;;;;;5.75;5.75;;;;;5.73;76.51;101130.56;5071368;27;45463;-74
2022/01/07 06:05:09;;;;;;;;;13.25;7.00;;;;;5.77;75.76;101139.31;5070953;28;46039;-74
2022/01/07 06:07:34;;;;;;;;;6.25;2.25;;;;;5.75;76.20;101135.81;5069403;27;46190;-74
2022/01/07 06:10:00;;;;;;;;;6.75;5.25;;;;;5.66;76.37;101113.13;5069480;28;45487;-74
2022/01/07 06:12:25;;;;;;;;;7.00;5.75;;;;;5.69;75.63;101120.97;5069273;28;45558;-74
2022/01/07 06:14:50;;;;;;;;;4.00;3.00;;;;;5.79;76.82;101127.88;5068743;28;45499;-74
2022/01/07 06:17:16;;;;;;;;;7.00;6.50;;;;;5.73;76.52;101093.78;5070960;28;45860;-74
2022/01/07 06:19:41;;;;;;;;;5.00;3.00;;;;;5.83;77.15;101069.19;5071540;28;45571;-74
2022/01/07 06:22:07;;;;;;;;;4.00;3.00;;;;;5.74;76.52;101066.66;5071342;28;45791;-74
2022/01/07 06:24:32;;;;;;;;;3.00;3.00;;;;;5.84;76.55;101098.97;5071234;27;45463;-74
2022/01/07 06:26:58;;;;;;;;;5.75;5.50;;;;;5.81;77.02;101099.84;5070433;28;45684;-74
2022/01/07 06:29:24;;;;;;;;;6.50;4.25;;;;;5.91;77.25;101105.88;5070703;28;45584;-74
2022/01/07 06:31:49;;;;;;;;;4.50;3.00;;;;;5.96;76.72;101109.38;5071069;28;45823;-74
2022/01/07 06:34:18;;;;;;;;;8.00;7.00;;;;;5.79;76.83;101062.22;5071894;27;46486;-74
2022/01/07 06:36:43;;;;;;;;;6.50;3.00;;;;;5.96;76.58;101092.75;5071115;28;46654;-74
2022/01/07 06:39:09;;;;;;;;;3.25;2.25;;;;;5.97;76.19;101100.63;5071327;27;45547;-73
2022/01/07 06:41:34;;;;;;;;;3.50;2.75;;;;;5.76;76.66;101064.88;5070465;28;45780;-74
2022/01/07 06:43:59;;;;;;;;;2.50;2.50;;;;;5.82;76.48;101072.69;5070997;27;46133;-74
2022/01/07 06:46:25;;;;;;;;;3.50;1.50;;;;;5.56;76.06;101030.03;5071395;28;46623;-74
2022/01/07 06:48:50;;;;;;;;;1.75;1.25;;;;;5.89;76.81;101084.03;5070566;28;45542;-73
2022/01/07 06:51:15;;;;;;;;;3.50;2.75;;;;;5.99;76.53;101097.97;5070620;28;45488;-74
2022/01/07 06:53:41;;;;;;;;;7.50;6.00;;;;;5.99;76.29;101108.47;5070666;28;45599;-74
2022/01/07 06:56:06;;;;;;;;;2.25;2.00;;;;;5.99;76.50;101093.59;5070754;28;45849;-74
2022/01/07 06:58:32;;;;;;;;;6.75;6.50;;;;;6.01;76.19;101089.19;5070718;28;46035;-74
2022/01/07 07:00:57;;;;;;;;;2.00;2.00;;;;;5.87;76.43;101078.78;5070790;28;45459;-74
2022/01/07 07:03:22;;;;;;;;;2.50;2.50;;;;;5.84;76.07;101067.44;5070599;27;45571;-74
2022/01/07 07:05:48;;;;;;;;;3.50;2.00;;;;;5.90;76.79;101078.75;5070378;28;45622;-74
2022/01/07 07:08:13;;;;;;;;;1.00;1.00;;;;;5.82;75.88;101072.69;5070381;28;45899;-74
2022/01/07 07:10:39;;;;;;;;;3.25;0.75;;;;;5.81;76.30;101076.22;5070431;28;45507;-74
2022/01/07 07:13:04;;;;;;;;;3.75;1.00;;;;;5.97;75.76;101091.84;5071419;28;46030;-74
2022/01/07 07:15:30;;;;;;;;;4.50;3.00;;;;;5.95;76.07;101089.25;5068727;28;46009;-74
2022/01/07 07:17:55;;;;;;;;;1.50;1.50;;;;;5.82;75.44;101067.44;5070254;27;45491;-74
2022/01/07 07:20:20;;;;;;;;;7.00;1.25;;;;;5.97;75.74;101083.97;5069976;28;45523;-73
2022/01/07 07:22:46;;;;;;;;;2.75;2.75;;;;;5.74;75.39;101048.28;5070554;28;46627;-74
2022/01/07 07:25:12;;;;;;;;;1.75;0.75;;;;;6.00;75.21;101091.81;5070404;28;45471;-74
2022/01/07 07:27:37;;;;;;;;;4.25;3.25;;;;;5.96;75.58;101069.97;5070974;28;45546;-74
2022/01/07 07:30:08;;;;;;;;;3.00;2.00;;;;;5.96;74.98;101074.38;5063756;27;45761;-74
2022/01/07 07:32:35;;;;;;;;;6.75;1.00;;;;;6.06;75.25;101086.50;5064417;28;45694;-75
2022/01/07 07:36:26;;;;;;;;;2.50;1.50;;;;;6.07;75.24;101080.38;5046628;28;46908;-74
2022/01/07 07:37:47;;;;;;;;;2.25;1.00;;;;;6.07;75.10;101094.38;5064863;28;47037;-74
2022/01/07 07:40:12;;;;;;;;;1.25;0.00;;;;;6.00;74.93;101094.44;5067766;27;45477;-75
2022/01/07 07:42:38;;;;;;;;;4.50;2.00;;;;;5.92;74.89;101081.38;5067321;28;46615;-74
2022/01/07 07:45:05;;;;;;;;;4.75;2.50;;;;;5.90;73.88;101078.75;5051444;28;45518;-74
2022/01/07 07:47:34;;;;;;;;;3.25;3.00;;;;;5.99;74.52;101092.72;5067557;28;45816;-74
2022/01/07 07:49:59;;;;;;;;;2.00;2.00;;;;;5.99;74.66;101095.34;5067417;28;45723;-74
2022/01/07 07:52:24;;;;;;;;;7.00;2.25;;;;;6.00;74.68;101110.22;5068381;28;45530;-74
2022/01/07 07:54:50;;;;;;;;;4.50;3.00;;;;;5.96;74.85;101106.75;5066450;28;45409;-75
2022/01/07 07:57:15;;;;;;;;;5.25;2.00;;;;;5.97;74.54;101115.50;5069007;28;45863;-75
2022/01/07 07:59:41;;;;;;;;;8.00;6.50;;;;;5.72;74.48;101078.06;5071604;28;45395;-74
2022/01/07 08:02:09;;;;;;;;;8.75;5.25;;;;;5.91;74.74;101112.03;5054267;28;47258;-74
2022/01/07 08:04:37;;;;;;;;;6.50;6.00;;;;;5.91;75.13;101106.78;5071442;28;45365;-74
2022/01/07 08:07:02;;;;;;;;;11.00;6.25;;;;;5.92;75.44;101095.38;5076633;27;45324;-74
2022/01/07 08:09:30;;;;;;;;;8.00;6.75;;;;;5.92;74.76;101105.88;5067985;28;45571;-74
2022/01/07 08:12:04;;;;;;;;;9.50;7.00;;;;;5.86;75.31;101091.94;5072774;28;46470;-74
2022/01/07 08:17:13;;;;;;;;;6.50;5.50;;;;;5.89;74.81;101077.03;5073656;28;45639;-75
2022/01/07 08:19:39;;;;;;;;;10.75;7.00;;;;;6.03;74.97;101105.81;5074726;28;45408;-75
2022/01/07 08:22:04;;;;;;;;;7.75;6.00;;;;;6.00;75.29;101103.22;5074801;28;46089;-74
2022/01/07 08:24:30;;;;;;;;;13.00;11.00;;;;;5.94;74.84;101099.78;5072506;28;45491;-75
2022/01/07 08:26:56;;;;;;;;;14.25;10.00;;;;;5.88;74.91;101093.69;5073119;28;45470;-74
2022/01/07 08:29:24;;;;;;;;;15.00;11.75;;;;;5.97;75.88;101107.63;5073201;27;45355;-75
2022/01/07 08:37:00;;;;;;;;;15.25;11.25;;;;;6.00;74.94;101105.88;5073691;28;45405;-74
2022/01/07 08:39:25;;;;;;;;;9.00;8.00;;;;;5.90;76.04;101089.25;5073511;28;45289;-74
2022/01/07 08:41:51;;;;;;;;;14.25;8.50;;;;;5.85;75.96;101082.31;5073097;28;45841;-74
2022/01/07 08:44:16;;;;;;;;;17.00;10.50;;;;;6.02;76.36;101093.56;5073349;28;45829;-74
2022/01/07 08:46:43;;;;;;;;;12.50;11.00;;;;;5.93;75.92;101064.75;5073287;28;45410;-74
2022/01/07 08:49:09;;;;;;;;;6.00;3.25;;;;;6.09;75.31;101089.13;5057263;28;45642;-74
2022/01/07 08:51:34;;;;;;;;;12.00;11.00;;;;;5.96;75.56;101055.97;5072553;28;46282;-74
2022/01/07 08:54:00;;;;;;;;;12.50;9.75;;;;;6.11;75.30;101093.47;5072884;28;45374;-74
2022/01/07 08:56:26;;;;;;;;;11.25;8.00;;;;;6.12;74.99;101086.47;5073277;28;45557;-75
2022/01/07 08:58:53;;;;;;;;;14.75;10.00;;;;;5.65;74.66;101020.34;5073054;28;45359;-74
2022/01/07 09:01:19;;;;;;;;;12.00;10.00;;;;;5.99;75.13;101077.81;5075021;28;46350;-74
2022/01/07 09:03:44;;;;;;;;;5.50;4.50;;;;;6.07;75.48;101085.66;5072393;28;45297;-74
2022/01/07 09:06:09;;;;;;;;;14.00;9.00;;;;;6.10;75.95;101082.97;5072490;28;45516;-74
2022/01/07 09:08:35;;;;;;;;;13.50;11.50;;;;;6.11;75.24;101088.19;5072831;28;45376;-74
2022/01/07 09:11:00;;;;;;;;;7.75;6.00;;;;;6.05;75.61;101090.03;5073240;28;45402;-74
2022/01/07 09:13:26;;;;;;;;;12.50;8.75;;;;;6.10;75.19;101083.84;5074867;28;45349;-74
2022/01/07 09:15:51;;;;;;;;;13.50;10.50;;;;;6.18;74.51;101091.66;5072315;28;45467;-74
2022/01/07 09:18:18;;;;;;;;;11.00;8.00;;;;;6.01;74.53;101072.56;5072761;28;45301;-74
2022/01/07 09:20:45;;;;;;;;;8.00;6.25;;;;;6.19;75.04;101093.41;5072412;28;46285;-74
2022/01/07 09:23:11;;;;;;;;;6.50;6.50;;;;;6.13;74.94;101078.56;5072711;28;45313;-73
2022/01/07 09:25:37;;;;;;;;;12.75;8.50;;;;;6.10;75.15;101080.34;5077535;28;45273;-74
2022/01/07 09:28:05;;;;;;;;;6.75;6.00;;;;;6.10;75.38;101080.34;5076417;28;45379;-74
2022/01/07 09:30:30;;;;;;;;;8.75;8.75;;;;;6.20;74.76;101096.88;5074449;28;46116;-74
2022/01/07 09:32:55;;;;;;;;;8.75;8.00;;;;;6.18;74.99;101103.91;5076277;27;45484;-74
2022/01/07 09:35:22;;;;;;;;;6.50;6.50;;;;;6.07;75.18;101090.91;5075734;27;45561;-74
2022/01/07 09:37:47;;;;;;;;;6.50;6.00;;;;;6.12;75.06;101084.72;5076386;28;45292;-74
2022/01/07 09:40:13;;;;;;;;;6.00;1.25;;;;;5.97;75.59;101061.22;5077296;27;45847;-74
2022/01/07 09:42:52;;;;;;;;;8.25;6.25;;;;;6.05;75.56;101071.63;5076085;27;45328;-75
2022/01/07 09:45:17;;;;;;;;;11.50;8.50;;;;;5.95;75.42;101063.00;5075900;27;45258;-75
2022/01/07 09:47:43;;;;;;;;;4.50;4.50;;;;;6.14;75.29;101098.69;5076044;28;45499;-74
2022/01/07 09:50:08;;;;;;;;;2.00;2.00;;;;;6.04;74.95;101083.03;5074202;28;46938;-75
2022/01/07 09:52:38;;;;;;;;;4.00;2.00;;;;;6.08;75.64;101082.13;5077230;28;45277;-74
2022/01/07 09:55:04;;;;;;;;;4.25;3.25;;;;;6.24;75.78;101110.00;5077517;28;45367;-75
2022/01/07 09:57:29;;;;;;;;;7.75;3.75;;;;;6.08;75.48;101093.50;5065179;27;45569;-74
2022/01/07 09:59:54;;;;;;;;;6.50;3.75;;;;;6.25;74.63;101116.97;5075749;28;45420;-74
2022/01/07 10:02:22;;;;;;;;;4.00;2.75;;;;;6.25;74.54;101113.50;5074444;28;45476;-74
2022/01/07 10:04:47;;;;;;;;;4.00;4.00;;;;;6.19;74.80;101103.91;5075521;28;45466;-74
2022/01/07 10:07:21;;;;;;;;;5.50;3.50;;;;;6.12;74.63;101083.84;5078253;27;45333;-75
2022/01/07 10:09:58;;;;;;;;;2.50;2.50;;;;;6.23;74.46;101107.38;5075332;28;45545;-75
2022/01/07 10:12:25;;;;;;;;;2.75;2.00;;;;;6.13;75.37;101083.81;5075547;27;45522;-74
2022/01/07 10:15:17;;;;;;;;;3.50;2.00;;;;;6.19;74.12;101090.78;5075539;28;45435;-74
2022/01/07 10:17:55;;;;;;;;;0.00;0.00;;;;;6.15;74.13;101086.44;5075596;27;45435;-74
2022/01/07 10:20:33;;;;;;;;;3.00;3.00;;;;;6.14;74.42;101074.16;5074958;28;45978;-75
2022/01/07 10:23:06;;;;;;;;;1.00;0.50;;;;;6.06;73.85;101044.47;5076006;27;45449;-75
2022/01/07 10:25:37;;;;;;;;;1.00;1.00;;;;;6.19;74.23;101069.75;5077250;27;45380;-75
2022/01/07 10:28:17;;;;;;;;;2.00;1.00;;;;;6.29;74.06;101081.88;5076482;28;45806;-75
2022/01/07 10:30:49;;;;;;;;;1.50;1.00;;;;;6.18;73.22;101048.72;5075002;27;46139;-74
2022/01/07 10:33:20;;;;;;;;;4.00;1.00;;;;;6.17;73.21;101052.25;5074531;28;45320;-75
2022/01/07 10:35:48;;;;;;;;;1.50;1.00;;;;;6.32;73.09;101081.88;5075028;27;45534;-75
2022/01/07 10:38:16;;;;;;;;;3.00;1.00;;;;;6.25;74.07;101053.91;5074568;28;45436;-75
2022/01/07 10:40:42;;;;;;;;;1.00;1.00;;;;;6.35;72.98;101081.84;5076338;28;46845;-75
2022/01/07 10:43:32;;;;;;;;;3.75;1.00;;;;;6.35;73.01;101089.72;5074842;28;45335;-76
2022/01/07 10:46:07;;;;;;;;;1.25;1.00;;;;;6.39;72.97;101092.31;5074124;28;45571;-75
2022/01/07 10:48:53;;;;;;;;;9.25;2.25;;;;;6.33;72.92;101077.47;5074568;28;45336;-75
2022/01/07 10:51:31;;;;;;;;;4.50;4.50;;;;;6.32;72.91;101084.50;5074428;28;46113;-75
2022/01/07 10:54:10;;;;;;;;;6.00;3.75;;;;;6.32;72.29;101086.22;5074804;28;45548;-75
2022/01/07 10:56:44;;;;;;;;;3.00;2.50;;;;;6.30;73.28;101080.16;5074820;28;45442;-75
2022/01/07 10:59:15;;;;;;;;;3.00;2.00;;;;;6.29;72.76;101068.72;5074661;28;45552;-74
2022/01/07 11:01:45;;;;;;;;;3.25;2.25;;;;;6.31;72.66;101074.84;5075182;28;47393;-75
2022/01/07 11:04:26;;;;;;;;;2.75;1.00;;;;;6.25;72.74;101076.69;5074637;28;45403;-75
2022/01/07 11:06:51;;;;;;;;;3.00;1.00;;;;;6.27;73.61;101086.31;5074675;28;45473;-75
2022/01/07 11:09:17;;;;;;;;;3.00;2.00;;;;;6.27;72.74;101088.94;5074540;28;45801;-75
2022/01/07 11:11:46;;;;;;;;;0.00;0.00;;;;;6.25;73.23;101095.97;5074187;28;46312;-75
2022/01/07 11:14:15;;;;;;;;;1.75;1.75;;;;;6.25;72.54;101095.09;5074822;28;45385;-75
2022/01/07 11:16:40;;;;;;;;;2.00;1.00;;;;;6.25;73.23;101093.31;5074526;28;45431;-75
2022/01/07 11:19:08;;;;;;;;;2.00;2.00;;;;;6.20;73.13;101079.34;5076525;28;45350;-75
2022/01/07 11:21:35;;;;;;;;;6.00;3.75;;;;;6.20;72.69;101067.97;5060821;28;47303;-75
2022/01/07 11:24:43;;;;;;;;;0.75;0.75;;;;;6.18;72.76;101077.63;5074289;28;45534;-75
2022/01/07 11:27:20;;;;;;;;;1.00;0.50;;;;;6.16;73.04;101064.53;5028042;28;45567;-75
2022/01/07 11:29:52;;;;;;;;;5.00;0.50;;;;;6.16;72.52;101071.53;5029132;28;45386;-75
2022/01/07 11:32:26;;;;;;;;;4.00;3.25;;;;;6.17;73.07;101066.25;5029966;28;45449;-75
2022/01/07 11:35:18;;;;;;;;;2.00;0.25;;;;;5.98;72.69;101043.69;5048907;28;45463;-75